createdAt,value
2023-04-28T00:00:29.162Z,18.27
2023-04-28T00:02:57.414Z,21.73
2023-04-28T00:05:25.223Z,23.73
2023-04-28T00:07:52.193Z,22.03
2023-04-28T00:10:19.088Z,21.73
2023-04-28T00:12:47.120Z,24.40
2023-04-28T00:15:15.404Z,22.90
2023-04-28T00:17:43.461Z,17.27
2023-04-28T00:20:11.270Z,24.50
2023-04-28T00:22:38.343Z,23.63
2023-04-28T00:25:06.253Z,20.83
2023-04-28T00:27:33.844Z,22.87
2023-04-28T00:30:03.934Z,19.13
2023-04-28T00:32:33.895Z,22.90
2023-04-28T00:35:01.599Z,18.03
2023-04-28T00:37:28.468Z,25.17
2023-04-28T00:39:58.074Z,24.63
2023-04-28T00:42:24.933Z,16.20
2023-04-28T00:44:51.794Z,23.83
2023-04-28T00:47:19.918Z,18.70
2023-04-28T00:49:49.633Z,24.27
2023-04-28T00:52:16.653Z,20.47
2023-04-28T00:54:43.652Z,25.67
2023-04-28T00:57:19.128Z,25.03
2023-04-28T00:59:46.130Z,21.63
2023-04-28T01:02:19.384Z,21.47
2023-04-28T01:04:47.336Z,27.23
2023-04-28T01:07:14.295Z,24.10
2023-04-28T01:09:41.092Z,23.40
2023-04-28T01:12:08.162Z,21.97
2023-04-28T01:14:35.569Z,22.47
2023-04-28T01:17:03.937Z,23.23
2023-04-28T01:19:31.881Z,20.47
2023-04-28T01:21:59.679Z,19.80
2023-04-28T01:24:26.476Z,20.43
2023-04-28T01:26:53.383Z,21.47
2023-04-28T01:29:22.418Z,22.73
2023-04-28T01:31:51.358Z,27.10
2023-04-28T01:34:24.145Z,22.40
2023-04-28T01:36:51.169Z,23.13
2023-04-28T01:39:20.378Z,20.20
2023-04-28T01:41:47.266Z,25.30
2023-04-28T01:44:14.468Z,22.17
2023-04-28T01:46:41.916Z,24.70
2023-04-28T01:49:08.893Z,19.17
2023-04-28T01:51:35.912Z,27.47
2023-04-28T01:54:02.675Z,25.40
2023-04-28T01:56:30.657Z,24.93
2023-04-28T01:58:58.558Z,19.93
2023-04-28T02:01:25.506Z,20.33
2023-04-28T02:03:52.988Z,23.87
2023-04-28T02:06:21.094Z,22.67
2023-04-28T02:08:48.117Z,25.47
2023-04-28T02:11:14.978Z,25.57
2023-04-28T02:13:43.090Z,21.90
2023-04-28T02:16:09.968Z,26.80
2023-04-28T02:18:37.073Z,24.87
2023-04-28T02:21:11.814Z,24.00
2023-04-28T02:23:39.932Z,26.93
2023-04-28T02:26:07.120Z,31.00
2023-04-28T02:28:34.134Z,26.73
2023-04-28T02:31:09.641Z,28.83
2023-04-28T02:33:37.410Z,24.00
2023-04-28T02:36:05.620Z,25.37
2023-04-28T02:38:32.783Z,23.37
2023-04-28T02:41:00.273Z,26.63
2023-04-28T02:43:28.072Z,24.73
2023-04-28T02:45:55.292Z,27.40
2023-04-28T02:48:24.552Z,23.17
2023-04-28T02:50:53.812Z,26.53
2023-04-28T02:53:21.639Z,26.30
2023-04-28T02:55:49.943Z,30.27
2023-04-28T02:58:18.111Z,22.77
2023-04-28T03:00:46.525Z,27.97
2023-04-28T03:03:13.967Z,29.00
2023-04-28T03:05:41.176Z,27.53
2023-04-28T03:08:08.183Z,27.13
2023-04-28T03:10:37.242Z,25.97
2023-04-28T03:13:04.050Z,33.83
2023-04-28T03:15:31.819Z,27.30
2023-04-28T03:17:58.810Z,23.73
2023-04-28T03:20:25.643Z,26.67
2023-04-28T03:22:52.800Z,29.03
2023-04-28T03:25:19.749Z,27.93
2023-04-28T03:27:46.529Z,28.73
2023-04-28T03:30:14.718Z,27.10
2023-04-28T03:32:41.759Z,27.77
2023-04-28T03:35:09.927Z,27.53
2023-04-28T03:37:36.992Z,24.30
2023-04-28T03:40:04.351Z,26.07
2023-04-28T03:42:31.253Z,29.53
2023-04-28T03:44:58.272Z,27.13
2023-04-28T03:47:26.284Z,32.80
2023-04-28T03:49:54.188Z,27.67
2023-04-28T03:52:21.322Z,24.93
2023-04-28T03:54:49.261Z,25.40
2023-04-28T03:57:16.276Z,25.10
2023-04-28T03:59:43.531Z,27.13
2023-04-28T04:02:10.567Z,26.57
2023-04-28T04:04:37.822Z,25.77
2023-04-28T04:07:04.980Z,32.77
2023-04-28T04:09:31.928Z,25.97
2023-04-28T04:12:01.168Z,27.80
2023-04-28T04:14:28.033Z,23.93
2023-04-28T04:16:57.320Z,24.17
2023-04-28T04:19:26.385Z,28.87
2023-04-28T04:21:53.474Z,27.87
2023-04-28T04:24:20.485Z,29.17
2023-04-28T04:26:48.355Z,28.50
2023-04-28T04:29:15.305Z,28.23
2023-04-28T04:31:45.371Z,24.40
2023-04-28T04:34:12.712Z,27.47
2023-04-28T04:36:39.811Z,28.03
2023-04-28T04:39:09.643Z,26.60
2023-04-28T04:41:36.515Z,32.10
2023-04-28T04:44:04.500Z,29.20
2023-04-28T04:46:31.986Z,27.93
2023-04-28T04:48:59.051Z,26.10
2023-04-28T04:51:26.032Z,27.87
2023-04-28T04:53:54.114Z,29.47
2023-04-28T04:56:21.002Z,28.57
2023-04-28T04:58:50.802Z,28.47
2023-04-28T05:01:17.627Z,34.43
2023-04-28T05:03:44.718Z,32.07
2023-04-28T05:06:12.076Z,42.30
2023-04-28T05:08:39.117Z,37.07
2023-04-28T05:11:05.825Z,34.03
2023-04-28T05:13:33.827Z,28.60
2023-04-28T05:16:00.678Z,32.37
2023-04-28T05:18:28.858Z,28.17
2023-04-28T05:20:55.692Z,26.70
2023-04-28T05:23:23.663Z,25.67
2023-04-28T05:25:51.154Z,33.43
2023-04-28T05:28:20.073Z,26.63
2023-04-28T05:30:48.367Z,29.90
2023-04-28T05:33:15.279Z,23.93
2023-04-28T05:35:42.473Z,25.97
2023-04-28T05:38:09.708Z,21.97
2023-04-28T05:40:36.590Z,22.47
2023-04-28T05:43:03.379Z,21.97
2023-04-28T05:45:30.557Z,20.73
2023-04-28T05:47:57.454Z,16.83
2023-04-28T05:50:24.372Z,18.23
2023-04-28T05:52:51.361Z,18.77
2023-04-28T05:55:18.212Z,20.77
2023-04-28T05:57:53.001Z,19.27
2023-04-28T06:00:20.518Z,18.37
2023-04-28T06:02:47.465Z,21.13
2023-04-28T06:05:14.563Z,18.37
2023-04-28T06:07:41.592Z,19.50
2023-04-28T06:10:10.032Z,22.27
2023-04-28T06:12:38.193Z,20.63
2023-04-28T06:15:06.568Z,22.67
2023-04-28T06:17:34.282Z,20.93
2023-04-28T06:20:01.336Z,19.97
2023-04-28T06:22:28.519Z,22.87
2023-04-28T06:24:56.522Z,26.20
2023-04-28T06:27:23.368Z,23.07
2023-04-28T06:29:50.614Z,21.60
2023-04-28T06:32:23.345Z,20.13
2023-04-28T06:34:50.410Z,17.23
2023-04-28T06:37:17.354Z,21.67
2023-04-28T06:39:44.544Z,21.70
2023-04-28T06:42:12.436Z,23.00
2023-04-28T06:44:39.263Z,28.40
2023-04-28T06:47:07.340Z,19.20
2023-04-28T06:49:34.170Z,19.13
2023-04-28T06:52:01.398Z,16.37
2023-04-28T06:54:30.920Z,20.70
2023-04-28T06:56:57.852Z,18.83
2023-04-28T06:59:26.442Z,20.27
2023-04-28T07:01:53.318Z,21.57
2023-04-28T07:04:20.532Z,14.90
2023-04-28T07:06:48.928Z,17.70
2023-04-28T07:09:17.445Z,12.00
2023-04-28T07:11:45.230Z,17.33
2023-04-28T07:14:12.268Z,11.83
2023-04-28T07:16:39.529Z,13.67
2023-04-28T07:19:06.440Z,10.47
2023-04-28T07:21:34.725Z,17.60
2023-04-28T07:24:02.887Z,9.33
2023-04-28T07:26:29.749Z,9.40
2023-04-28T07:28:57.708Z,7.73
2023-04-28T07:31:24.756Z,8.30
2023-04-28T07:33:51.773Z,5.47
2023-04-28T07:36:18.644Z,8.20
2023-04-28T07:38:45.963Z,4.90
2023-04-28T07:41:13.150Z,6.33
2023-04-28T07:43:40.526Z,6.53
2023-04-28T07:46:09.970Z,5.97
2023-04-28T07:48:37.126Z,6.97
2023-04-28T07:51:06.309Z,5.20
2023-04-28T07:53:33.872Z,5.83
2023-04-28T07:56:01.154Z,4.47
2023-04-28T07:58:30.033Z,8.93
2023-04-28T08:00:56.914Z,4.30
2023-04-28T08:03:23.899Z,5.40
2023-04-28T08:05:52.205Z,4.90
2023-04-28T08:08:19.229Z,3.90
2023-04-28T08:10:46.199Z,6.30
2023-04-28T08:13:13.320Z,3.57
2023-04-28T08:15:40.654Z,3.38
2023-04-28T08:18:10.010Z,5.57
2023-04-28T08:20:36.924Z,4.43
2023-04-28T08:23:04.920Z,7.93
2023-04-28T08:25:31.793Z,4.50
2023-04-28T08:27:58.878Z,9.10
2023-04-28T08:30:25.918Z,3.55
2023-04-28T08:32:53.181Z,3.57
2023-04-28T08:35:21.403Z,7.75
2023-04-28T08:37:49.569Z,7.23
2023-04-28T08:40:17.548Z,3.93
2023-04-28T08:42:46.253Z,6.60
2023-04-28T08:45:17.469Z,6.17
2023-04-28T08:47:49.723Z,8.13
2023-04-28T08:50:21.484Z,6.72
2023-04-28T08:52:48.725Z,5.80
2023-04-28T08:55:18.313Z,6.17
2023-04-28T08:57:54.761Z,4.57
2023-04-28T09:00:21.791Z,3.80
2023-04-28T09:02:48.892Z,4.83
2023-04-28T09:05:16.243Z,4.72
2023-04-28T09:07:47.017Z,4.18
2023-04-28T09:10:21.288Z,4.47
2023-04-28T09:12:51.290Z,5.00
2023-04-28T09:15:38.498Z,5.57
2023-04-28T09:18:07.062Z,5.10
2023-04-28T09:20:35.559Z,6.33
2023-04-28T09:23:22.678Z,6.47
2023-04-28T09:26:08.051Z,4.40
2023-04-28T09:28:36.660Z,5.30
2023-04-28T09:31:04.168Z,4.90
2023-04-28T09:33:32.408Z,2.63
2023-04-28T09:36:00.137Z,3.90
2023-04-28T09:38:27.195Z,7.03
2023-04-28T09:41:02.204Z,5.15
2023-04-28T09:43:34.375Z,3.35
2023-04-28T09:46:04.587Z,4.20
2023-04-28T09:48:36.332Z,3.50
2023-04-28T09:51:06.103Z,5.10
2023-04-28T09:53:34.325Z,7.97
2023-04-28T09:56:03.803Z,5.70
2023-04-28T09:58:32.974Z,32.47
2023-04-28T10:01:01.053Z,4.35
2023-04-28T10:03:30.710Z,5.80
2023-04-28T10:06:02.495Z,6.20
2023-04-28T10:08:29.870Z,4.93
2023-04-28T10:10:57.893Z,58.25
2023-04-28T10:13:26.196Z,5.60
2023-04-28T10:15:58.216Z,7.80
2023-04-28T10:18:26.497Z,5.95
2023-04-28T10:21:00.847Z,6.68
2023-04-28T10:23:59.723Z,3.95
2023-04-28T10:26:52.855Z,5.55
2023-04-28T10:29:26.971Z,5.05
2023-04-28T10:32:16.471Z,4.65
2023-04-28T10:34:45.724Z,5.07
2023-04-28T10:37:19.049Z,6.43
2023-04-28T10:40:23.328Z,7.65
2023-04-28T10:42:56.900Z,4.55
2023-04-28T10:45:59.638Z,5.30
2023-04-28T10:48:30.960Z,8.10
2023-04-28T10:51:21.588Z,4.97
2023-04-28T10:53:49.488Z,4.45
2023-04-28T10:56:26.781Z,8.40
2023-04-28T10:59:00.888Z,6.68
2023-04-28T11:01:29.784Z,6.40
2023-04-28T11:04:08.371Z,5.35
2023-04-28T11:06:45.970Z,6.68
2023-04-28T11:09:14.296Z,6.15
2023-04-28T11:12:00.424Z,7.28
2023-04-28T11:14:31.517Z,6.28
2023-04-28T11:17:03.969Z,5.78
2023-04-28T11:19:30.876Z,7.82
2023-04-28T11:22:00.005Z,7.35
2023-04-28T11:24:31.663Z,7.43
2023-04-28T11:26:59.267Z,4.68
2023-04-28T11:29:42.815Z,6.93
2023-04-28T11:32:10.866Z,5.57
2023-04-28T11:34:38.135Z,7.35
2023-04-28T11:37:08.508Z,8.35
2023-04-28T11:39:35.929Z,5.20
2023-04-28T11:42:09.727Z,7.22
2023-04-28T11:44:36.918Z,8.68
2023-04-28T11:47:06.098Z,8.02
2023-04-28T11:49:44.878Z,5.97
2023-04-28T11:52:12.783Z,4.60
2023-04-28T11:54:44.681Z,7.25
2023-04-28T11:57:20.481Z,5.00
2023-04-28T11:59:47.859Z,8.13
2023-04-28T12:02:17.061Z,6.93
2023-04-28T12:04:52.157Z,7.07
2023-04-28T12:07:19.789Z,7.60
2023-04-28T12:10:18.885Z,6.90
2023-04-28T12:12:52.538Z,12.50
2023-04-28T12:15:22.439Z,7.35
2023-04-28T12:17:50.701Z,9.38
2023-04-28T12:20:37.268Z,10.82
2023-04-28T12:23:05.405Z,6.80
2023-04-28T12:25:35.199Z,7.90
2023-04-28T12:28:04.663Z,6.72
2023-04-28T12:30:33.689Z,7.55
2023-04-28T12:33:01.022Z,6.85
2023-04-28T12:35:29.183Z,6.10
2023-04-28T12:37:56.986Z,13.43
2023-04-28T12:40:24.586Z,7.68
2023-04-28T12:42:51.798Z,6.68
2023-04-28T12:45:19.087Z,6.10
2023-04-28T12:47:46.372Z,6.55
2023-04-28T12:50:14.392Z,8.35
2023-04-28T12:52:41.479Z,7.72
2023-04-28T12:55:08.990Z,6.88
2023-04-28T12:57:39.012Z,6.00
2023-04-28T13:00:08.112Z,8.52
2023-04-28T13:02:36.610Z,7.13
2023-04-28T13:05:03.860Z,6.40
2023-04-28T13:07:30.976Z,8.85
2023-04-28T13:09:58.548Z,6.15
2023-04-28T13:12:25.828Z,8.00
2023-04-28T13:14:52.768Z,7.68
2023-04-28T13:17:19.779Z,8.02
2023-04-28T13:19:47.401Z,8.55
2023-04-28T13:22:14.740Z,7.20
2023-04-28T13:24:41.638Z,8.32
2023-04-28T13:27:12.412Z,6.45
2023-04-28T13:29:40.190Z,8.38
2023-04-28T13:32:07.242Z,7.32
2023-04-28T13:34:34.447Z,6.05
2023-04-28T13:37:01.394Z,9.27
2023-04-28T13:39:30.396Z,8.38
2023-04-28T13:41:57.257Z,9.38
2023-04-28T13:44:25.281Z,6.63
2023-04-28T13:46:53.442Z,7.68
2023-04-28T13:49:20.392Z,6.28
2023-04-28T13:51:47.372Z,6.95
2023-04-28T13:54:14.582Z,9.05
2023-04-28T13:56:41.610Z,7.32
2023-04-28T13:59:08.757Z,7.97
2023-04-28T14:01:35.895Z,7.07
2023-04-28T14:04:03.500Z,5.65
2023-04-28T14:06:32.406Z,7.72
2023-04-28T14:09:01.240Z,7.82
2023-04-28T14:11:28.097Z,7.75
2023-04-28T14:13:57.435Z,7.90
2023-04-28T14:16:24.597Z,6.68
2023-04-28T14:18:51.911Z,7.05
2023-04-28T14:21:18.767Z,7.78
2023-04-28T14:23:45.557Z,7.07
2023-04-28T14:26:12.608Z,8.93
2023-04-28T14:28:39.625Z,6.28
2023-04-28T14:31:08.631Z,9.27
2023-04-28T14:33:36.761Z,5.88
2023-04-28T14:36:04.083Z,8.07
2023-04-28T14:38:31.197Z,5.50
2023-04-28T14:40:58.273Z,7.80
2023-04-28T14:43:25.713Z,8.13
2023-04-28T14:45:53.028Z,7.90
2023-04-28T14:48:21.201Z,9.40
2023-04-28T14:50:48.469Z,7.57
2023-04-28T14:53:15.361Z,8.77
2023-04-28T14:55:42.452Z,8.00
2023-04-28T14:58:12.258Z,6.40
2023-04-28T15:00:39.329Z,5.60
2023-04-28T15:03:06.262Z,7.63
2023-04-28T15:05:33.550Z,5.88
2023-04-28T15:08:00.586Z,8.15
2023-04-28T15:10:37.371Z,6.53
2023-04-28T15:13:04.670Z,5.97
2023-04-28T15:15:31.943Z,9.13
2023-04-28T15:18:00.912Z,9.38
2023-04-28T15:20:33.242Z,6.95
2023-04-28T15:23:00.889Z,9.80
2023-04-28T15:25:27.942Z,12.18
2023-04-28T15:27:55.033Z,7.32
2023-04-28T15:30:22.427Z,8.70
2023-04-28T15:32:50.561Z,7.47
2023-04-28T15:35:17.638Z,6.78
2023-04-28T15:37:47.679Z,10.10
2023-04-28T15:40:16.674Z,9.57
2023-04-28T15:42:48.999Z,5.40
2023-04-28T15:45:18.494Z,7.75
2023-04-28T15:47:48.213Z,6.22
2023-04-28T15:50:16.114Z,7.03
2023-04-28T15:52:48.798Z,6.05
2023-04-28T15:55:16.936Z,6.32
2023-04-28T15:57:44.459Z,8.05
2023-04-28T16:00:12.081Z,8.13
2023-04-28T16:02:41.104Z,8.45
2023-04-28T16:05:08.705Z,9.73
2023-04-28T16:07:40.734Z,7.30
2023-04-28T16:10:12.764Z,16.67
2023-04-28T16:12:40.805Z,28.33
2023-04-28T16:15:10.891Z,18.88
2023-04-28T16:17:38.579Z,7.70
2023-04-28T16:20:07.200Z,11.68
2023-04-28T16:22:34.986Z,10.23
2023-04-28T16:25:03.801Z,8.52
2023-04-28T16:27:32.100Z,9.05
2023-04-28T16:30:00.411Z,8.63
2023-04-28T16:32:28.177Z,7.60
2023-04-28T16:34:58.320Z,7.95
2023-04-28T16:37:26.257Z,12.25
2023-04-28T16:39:53.306Z,7.80
2023-04-28T16:42:22.971Z,7.40
2023-04-28T16:44:52.562Z,10.45
2023-04-28T16:47:20.060Z,9.85
2023-04-28T16:49:46.909Z,8.07
2023-04-28T16:52:13.750Z,13.38
2023-04-28T16:54:40.547Z,10.82
2023-04-28T16:57:07.837Z,9.75
2023-04-28T16:59:35.830Z,7.03
2023-04-28T17:02:06.772Z,7.15
2023-04-28T17:04:34.455Z,8.15
2023-04-28T17:07:04.600Z,9.82
2023-04-28T17:09:33.287Z,15.00
2023-04-28T17:12:00.934Z,14.43
2023-04-28T17:14:27.899Z,10.80
2023-04-28T17:16:54.823Z,12.15
2023-04-28T17:19:22.428Z,14.60
2023-04-28T17:21:52.354Z,15.30
2023-04-28T17:24:19.398Z,10.60
2023-04-28T17:26:46.178Z,12.05
2023-04-28T17:29:12.990Z,12.80
2023-04-28T17:31:40.039Z,12.52
2023-04-28T17:34:07.095Z,13.80
2023-04-28T17:36:34.110Z,13.60
2023-04-28T17:39:01.348Z,17.27
2023-04-28T17:41:28.218Z,12.57
2023-04-28T17:43:55.055Z,10.60
2023-04-28T17:46:22.486Z,13.52
2023-04-28T17:48:49.526Z,10.23
2023-04-28T17:51:16.778Z,12.20
2023-04-28T17:53:43.702Z,12.63
2023-04-28T17:56:10.907Z,12.60
2023-04-28T17:58:37.972Z,12.32
2023-04-28T18:01:06.631Z,11.38
2023-04-28T18:03:38.141Z,10.60
2023-04-28T18:06:07.869Z,10.90
2023-04-28T18:08:36.885Z,10.93
2023-04-28T18:11:04.930Z,13.73
2023-04-28T18:13:33.324Z,10.70
2023-04-28T18:16:00.901Z,13.15
2023-04-28T18:18:30.241Z,11.33
2023-04-28T18:20:59.274Z,17.08
2023-04-28T18:23:27.426Z,20.80
2023-04-28T18:25:54.371Z,18.00
2023-04-28T18:28:21.323Z,22.27
2023-04-28T18:30:49.309Z,18.07
2023-04-28T18:33:20.543Z,18.57
2023-04-28T18:35:49.106Z,20.10
2023-04-28T18:38:16.019Z,15.37
2023-04-28T18:40:42.704Z,18.43
2023-04-28T18:43:13.293Z,18.47
2023-04-28T18:45:41.312Z,16.63
2023-04-28T18:48:10.271Z,12.97
2023-04-28T18:50:37.946Z,13.10
2023-04-28T18:53:05.348Z,13.17
2023-04-28T18:55:35.113Z,14.53
2023-04-28T18:58:02.387Z,16.20
2023-04-28T19:00:29.699Z,16.93
2023-04-28T19:02:57.015Z,18.50
2023-04-28T19:05:24.147Z,24.07
2023-04-28T19:07:51.187Z,22.60
2023-04-28T19:10:18.123Z,18.33
2023-04-28T19:12:45.106Z,18.07
2023-04-28T19:15:11.943Z,15.33
2023-04-28T19:17:39.492Z,16.87
2023-04-28T19:20:07.181Z,15.83
2023-04-28T19:22:40.342Z,15.43
2023-04-28T19:25:08.002Z,15.53
2023-04-28T19:27:37.083Z,21.60
2023-04-28T19:30:06.276Z,19.73
2023-04-28T19:32:35.141Z,16.63
2023-04-28T19:35:04.334Z,16.47
2023-04-28T19:37:32.266Z,23.40
2023-04-28T19:39:59.201Z,13.33
2023-04-28T19:42:26.284Z,18.67
2023-04-28T19:44:57.964Z,17.83
2023-04-28T19:47:26.530Z,14.57
2023-04-28T19:49:54.711Z,18.13
2023-04-28T19:52:22.388Z,16.70
2023-04-28T19:54:50.648Z,17.27
2023-04-28T19:57:19.110Z,13.73
2023-04-28T19:59:47.827Z,16.17
2023-04-28T20:02:16.005Z,16.93
2023-04-28T20:04:43.459Z,16.07
2023-04-28T20:07:11.483Z,14.50
2023-04-28T20:09:38.672Z,19.57
2023-04-28T20:12:07.737Z,17.53
2023-04-28T20:14:35.401Z,21.60
2023-04-28T20:17:04.069Z,15.43
2023-04-28T20:19:31.374Z,16.33
2023-04-28T20:21:58.379Z,13.90
2023-04-28T20:24:25.881Z,18.67
2023-04-28T20:26:54.678Z,13.80
2023-04-28T20:29:21.792Z,13.90
2023-04-28T20:31:48.919Z,13.23
2023-04-28T20:34:16.158Z,13.83
2023-04-28T20:36:43.247Z,17.50
2023-04-28T20:39:11.806Z,16.27
2023-04-28T20:41:41.034Z,14.10
2023-04-28T20:44:08.700Z,16.20
2023-04-28T20:46:36.100Z,17.40
2023-04-28T20:49:04.331Z,14.13
2023-04-28T20:51:35.154Z,12.80
2023-04-28T20:54:04.029Z,16.77
2023-04-28T20:56:30.912Z,14.00
2023-04-28T20:58:57.775Z,12.50
2023-04-28T21:01:24.983Z,13.43
2023-04-28T21:03:51.920Z,14.70
2023-04-28T21:06:19.481Z,14.87
2023-04-28T21:08:46.354Z,12.67
2023-04-28T21:11:16.975Z,14.87
2023-04-28T21:13:44.847Z,12.53
2023-04-28T21:16:20.562Z,21.17
2023-04-28T21:18:48.207Z,15.27
2023-04-28T21:21:15.360Z,15.27
2023-04-28T21:23:43.038Z,17.57
2023-04-28T21:26:10.603Z,15.17
2023-04-28T21:28:37.800Z,16.37
2023-04-28T21:31:05.673Z,19.93
2023-04-28T21:33:32.943Z,13.80
2023-04-28T21:36:05.586Z,16.90
2023-04-28T21:38:34.254Z,15.17
2023-04-28T21:41:01.282Z,17.30
2023-04-28T21:43:28.337Z,17.27
2023-04-28T21:45:55.323Z,16.03
2023-04-28T21:48:22.500Z,17.43
2023-04-28T21:50:49.678Z,13.80
2023-04-28T21:53:16.696Z,14.13
2023-04-28T21:55:44.745Z,18.77
2023-04-28T21:58:12.252Z,20.77
2023-04-28T22:00:43.246Z,15.03
2023-04-28T22:03:13.754Z,17.73
2023-04-28T22:05:42.150Z,21.00
2023-04-28T22:08:09.233Z,15.77
2023-04-28T22:10:36.541Z,18.47
2023-04-28T22:13:05.050Z,16.70
2023-04-28T22:15:32.650Z,15.30
2023-04-28T22:17:59.691Z,16.40
2023-04-28T22:20:26.940Z,12.63
2023-04-28T22:22:54.221Z,15.60
2023-04-28T22:25:21.545Z,13.87
2023-04-28T22:27:48.469Z,13.93
2023-04-28T22:30:15.736Z,15.93
2023-04-28T22:32:47.130Z,18.47
2023-04-28T22:35:14.764Z,17.37
2023-04-28T22:37:41.587Z,14.63
2023-04-28T22:40:09.937Z,18.30
2023-04-28T22:42:37.910Z,18.00
2023-04-28T22:45:06.686Z,19.03
2023-04-28T22:47:34.427Z,21.20
2023-04-28T22:50:05.866Z,17.23
2023-04-28T22:52:33.580Z,18.37
2023-04-28T22:55:00.946Z,18.17
2023-04-28T22:57:28.199Z,17.43
2023-04-28T22:59:55.441Z,16.07
2023-04-28T23:02:23.347Z,20.10
2023-04-28T23:04:50.971Z,17.97
2023-04-28T23:07:18.295Z,21.10
2023-04-28T23:09:45.386Z,15.27
2023-04-28T23:12:12.484Z,16.80
2023-04-28T23:14:39.659Z,17.63
2023-04-28T23:17:06.808Z,21.17
2023-04-28T23:19:39.259Z,18.80
2023-04-28T23:22:07.556Z,15.07
2023-04-28T23:24:36.785Z,14.97
2023-04-28T23:27:04.668Z,15.60
2023-04-28T23:29:31.924Z,11.20
2023-04-28T23:32:01.079Z,15.47
2023-04-28T23:34:29.883Z,14.27
2023-04-28T23:36:56.902Z,15.20
2023-04-28T23:39:24.653Z,16.70
2023-04-28T23:41:51.795Z,12.17
2023-04-28T23:44:20.635Z,12.90
2023-04-28T23:46:49.038Z,13.23
2023-04-28T23:49:16.476Z,16.53
2023-04-28T23:51:43.679Z,17.17
2023-04-28T23:54:10.646Z,16.40
2023-04-28T23:56:37.693Z,17.70
2023-04-28T23:59:05.361Z,13.23
